Time;durP1;ratioP1;P1;durP2;ratioP2;P2;SDS_P1;SDS_P2;PMS_P1;PMS_P2;Temp;Humidity;BMP_temperature;BMP_pressure;BME280_temperature;BME280_humidity;BME280_pressure;Samples;Min_cycle;Max_cycle;Signal;HPM_P1;HPM_P2
2022/03/22 00:00:56;;;;;;;7.75;6.50;;;23.00;31.70;;;;;;5025349;28;20052;-43
2022/03/22 00:03:24;;;;;;;7.95;6.90;;;22.90;31.70;;;;;;5025098;28;20087;-43
2022/03/22 00:05:54;;;;;;;8.38;7.07;;;22.90;31.80;;;;;;5026333;28;20400;-43
2022/03/22 00:08:21;;;;;;;8.15;6.75;;;22.90;31.80;;;;;;5026373;28;20053;-43
2022/03/22 00:10:47;;;;;;;9.15;6.78;;;22.90;31.80;;;;;;5026830;28;20040;-43
2022/03/22 00:13:13;;;;;;;7.90;6.40;;;22.90;31.80;;;;;;5026437;28;20038;-44
2022/03/22 00:15:39;;;;;;;7.63;6.30;;;22.90;31.90;;;;;;5026677;28;20057;-43
2022/03/22 00:18:05;;;;;;;6.80;5.82;;;22.90;31.80;;;;;;5026949;28;20104;-43
2022/03/22 00:20:31;;;;;;;7.93;6.18;;;22.90;31.80;;;;;;5026812;28;20088;-44
2022/03/22 00:22:57;;;;;;;7.32;6.30;;;22.90;31.80;;;;;;5026482;28;20036;-43
2022/03/22 00:25:24;;;;;;;7.55;6.25;;;22.80;31.70;;;;;;5026582;28;20652;-43
2022/03/22 00:27:51;;;;;;;7.50;6.20;;;22.80;31.70;;;;;;5026036;28;20039;-44
2022/03/22 00:30:19;;;;;;;7.45;6.13;;;22.80;31.70;;;;;;5025300;28;20100;-44
2022/03/22 00:32:46;;;;;;;7.22;5.95;;;22.80;31.70;;;;;;5026557;28;20036;-43
2022/03/22 00:35:12;;;;;;;7.15;5.50;;;22.80;31.70;;;;;;5025046;28;20504;-43
2022/03/22 00:37:42;;;;;;;6.78;5.75;;;22.80;31.70;;;;;;5025974;28;20029;-43
2022/03/22 00:40:15;;;;;;;6.40;5.28;;;22.80;31.70;;;;;;5026283;28;20030;-43
2022/03/22 00:42:40;;;;;;;6.97;5.30;;;22.80;31.60;;;;;;5026301;28;20034;-43
2022/03/22 00:45:07;;;;;;;6.45;5.15;;;22.70;31.60;;;;;;5024521;28;20389;-43
2022/03/22 00:47:33;;;;;;;6.30;5.20;;;22.80;31.60;;;;;;5025819;28;20178;-43
2022/03/22 00:50:00;;;;;;;5.90;4.55;;;22.70;31.60;;;;;;5025664;28;20042;-43
2022/03/22 00:52:26;;;;;;;5.85;4.88;;;22.70;31.60;;;;;;5005718;28;20034;-43
2022/03/22 00:54:52;;;;;;;6.30;5.07;;;22.70;31.60;;;;;;5006759;28;20030;-47
2022/03/22 00:57:18;;;;;;;7.15;5.53;;;22.70;31.60;;;;;;5008759;28;20024;-43
2022/03/22 01:00:04;;;;;;;6.70;5.00;;;22.70;31.60;;;;;;5024870;28;20425;-43
2022/03/22 01:02:34;;;;;;;6.03;4.80;;;22.70;31.60;;;;;;5025842;28;20025;-43
2022/03/22 01:05:01;;;;;;;7.60;5.00;;;22.70;31.60;;;;;;5025631;28;20649;-43
2022/03/22 01:07:27;;;;;;;6.78;5.15;;;22.70;31.60;;;;;;5024067;28;20029;-43
2022/03/22 01:09:53;;;;;;;8.52;4.93;;;22.60;31.60;;;;;;5025723;28;20033;-43
2022/03/22 01:12:19;;;;;;;6.25;4.50;;;22.60;31.50;;;;;;5025923;28;20477;-44
2022/03/22 01:14:44;;;;;;;5.43;4.20;;;22.60;31.50;;;;;;5024120;28;20036;-43
2022/03/22 01:17:10;;;;;;;5.60;4.80;;;22.60;31.50;;;;;;5025136;28;20025;-43
2022/03/22 01:19:37;;;;;;;7.05;5.15;;;22.60;31.50;;;;;;5025416;28;20036;-43
2022/03/22 01:22:03;;;;;;;5.97;4.55;;;22.60;31.50;;;;;;5025562;28;20108;-43
2022/03/22 01:24:29;;;;;;;5.78;4.35;;;22.60;31.50;;;;;;5023695;28;20079;-43
2022/03/22 01:26:55;;;;;;;5.47;4.13;;;22.60;31.50;;;;;;5025213;28;20037;-43
2022/03/22 01:29:20;;;;;;;5.03;3.67;;;22.60;31.50;;;;;;5024526;28;20033;-43
2022/03/22 01:31:46;;;;;;;5.70;4.35;;;22.60;31.50;;;;;;5023845;28;20065;-43
2022/03/22 01:34:12;;;;;;;5.55;3.95;;;22.60;31.50;;;;;;5025540;28;20527;-43
2022/03/22 01:36:38;;;;;;;5.88;4.53;;;22.60;31.50;;;;;;5024154;28;20504;-44
2022/03/22 01:39:04;;;;;;;5.28;3.80;;;22.50;31.50;;;;;;5024074;28;20488;-43
2022/03/22 01:41:30;;;;;;;5.10;4.15;;;22.50;31.50;;;;;;5023049;28;20025;-43
2022/03/22 01:43:55;;;;;;;4.68;3.80;;;22.50;31.50;;;;;;5024752;28;20105;-43
2022/03/22 01:46:24;;;;;;;6.07;4.35;;;22.50;31.50;;;;;;5024767;28;20124;-43
2022/03/22 01:48:51;;;;;;;5.90;4.60;;;22.50;31.50;;;;;;5025095;28;20038;-43
2022/03/22 01:51:20;;;;;;;5.60;4.25;;;22.50;31.50;;;;;;5024548;28;20025;-43
2022/03/22 01:53:47;;;;;;;5.60;4.10;;;22.50;31.50;;;;;;5023314;28;20075;-43
2022/03/22 01:56:13;;;;;;;6.60;4.70;;;22.50;31.50;;;;;;5024827;28;20025;-44
2022/03/22 01:58:39;;;;;;;5.25;4.00;;;22.50;31.50;;;;;;5024804;28;20116;-43
2022/03/22 02:06:35;;;;;;;5.20;3.65;;;22.50;31.50;;;;;;5024117;28;20531;-43
2022/03/22 02:09:01;;;;;;;4.97;3.78;;;22.40;31.40;;;;;;5024752;28;20041;-43
2022/03/22 02:11:27;;;;;;;4.85;3.58;;;22.40;31.40;;;;;;5024572;28;20432;-43
2022/03/22 02:13:53;;;;;;;4.80;3.60;;;22.40;31.40;;;;;;5024430;28;20034;-44
2022/03/22 02:16:19;;;;;;;4.60;3.40;;;22.40;31.40;;;;;;5022879;28;20101;-43
2022/03/22 02:18:45;;;;;;;5.18;3.85;;;22.40;31.40;;;;;;5024342;28;20064;-43
2022/03/22 02:21:14;;;;;;;4.57;3.50;;;22.40;31.40;;;;;;5023689;28;20036;-42
2022/03/22 02:23:52;;;;;;;4.78;3.63;;;22.40;31.40;;;;;;5024682;28;20120;-42
2022/03/22 02:26:19;;;;;;;5.25;3.40;;;22.40;31.40;;;;;;5024173;28;20037;-42
2022/03/22 02:28:45;;;;;;;5.60;3.88;;;22.40;31.40;;;;;;5024045;28;20072;-43
2022/03/22 02:31:11;;;;;;;5.30;3.60;;;22.40;31.40;;;;;;5024493;28;20034;-43
2022/03/22 02:33:43;;;;;;;4.97;3.58;;;22.30;31.40;;;;;;5024036;28;20571;-43
2022/03/22 02:36:10;;;;;;;4.63;3.43;;;22.40;31.40;;;;;;5023901;28;20492;-44
2022/03/22 02:38:35;;;;;;;5.47;3.55;;;22.30;31.40;;;;;;5024159;28;20030;-43
2022/03/22 02:41:01;;;;;;;5.07;3.60;;;22.30;31.40;;;;;;5025135;28;20064;-43
2022/03/22 02:43:27;;;;;;;5.97;4.15;;;22.30;31.40;;;;;;5024491;28;20041;-43
2022/03/22 02:45:53;;;;;;;5.10;3.75;;;22.30;31.40;;;;;;5024325;28;20037;-43
2022/03/22 02:48:19;;;;;;;4.60;3.17;;;22.30;31.40;;;;;;5024443;28;20034;-43
2022/03/22 02:50:45;;;;;;;5.20;3.80;;;22.30;31.40;;;;;;5024155;28;20514;-43
2022/03/22 02:53:10;;;;;;;4.82;3.58;;;22.30;31.40;;;;;;5025647;28;20029;-43
2022/03/22 02:55:36;;;;;;;4.72;3.45;;;22.30;31.40;;;;;;5028765;28;20025;-43
2022/03/22 02:58:03;;;;;;;4.43;3.38;;;22.30;31.40;;;;;;5028154;28;20109;-44
2022/03/22 03:00:29;;;;;;;5.25;3.33;;;22.30;31.40;;;;;;5028535;28;20045;-44
2022/03/22 03:02:54;;;;;;;4.15;2.85;;;22.30;31.30;;;;;;5028192;28;20033;-44
2022/03/22 03:05:22;;;;;;;4.47;3.15;;;22.30;31.30;;;;;;5028636;28;20030;-44
2022/03/22 03:07:49;;;;;;;4.60;3.42;;;22.30;31.40;;;;;;5027761;28;20045;-43
2022/03/22 03:10:15;;;;;;;4.38;3.28;;;22.30;31.30;;;;;;5028394;28;20029;-44
2022/03/22 03:12:41;;;;;;;4.72;3.78;;;22.20;31.30;;;;;;5026555;28;20125;-42
2022/03/22 03:15:11;;;;;;;4.93;3.55;;;22.20;31.30;;;;;;5027505;28;20500;-43
2022/03/22 03:17:38;;;;;;;4.72;3.47;;;22.20;31.30;;;;;;5027297;28;20022;-43
2022/03/22 03:20:05;;;;;;;5.00;3.60;;;22.20;31.30;;;;;;5027722;28;20040;-43
2022/03/22 03:22:31;;;;;;;5.03;3.40;;;22.20;31.30;;;;;;5028145;28;20504;-44
2022/03/22 03:24:56;;;;;;;4.40;3.40;;;22.20;31.30;;;;;;5027853;28;20533;-44
2022/03/22 03:27:22;;;;;;;4.50;3.22;;;22.20;31.30;;;;;;5027350;28;20052;-44
2022/03/22 03:29:49;;;;;;;4.78;3.50;;;22.20;31.30;;;;;;5026988;28;20064;-44
2022/03/22 03:32:14;;;;;;;4.80;3.40;;;22.20;31.20;;;;;;5026530;28;20030;-43
2022/03/22 03:34:40;;;;;;;4.10;2.92;;;22.20;31.20;;;;;;5027104;28;20036;-43
2022/03/22 03:37:06;;;;;;;4.35;2.92;;;22.10;31.30;;;;;;5026272;28;20413;-44
2022/03/22 03:39:32;;;;;;;5.10;3.58;;;22.20;31.30;;;;;;5027489;28;20168;-44
2022/03/22 03:41:59;;;;;;;4.60;3.45;;;22.20;31.30;;;;;;5026808;28;20116;-42
2022/03/22 03:47:13;;;;;;;4.60;3.53;;;22.20;31.20;;;;;;5027052;28;20076;-43
2022/03/22 03:49:42;;;;;;;5.15;3.13;;;22.10;31.30;;;;;;5025415;28;20032;-42
2022/03/22 03:52:10;;;;;;;5.05;3.25;;;22.10;31.30;;;;;;5027104;28;20068;-44
2022/03/22 03:54:36;;;;;;;4.97;3.75;;;22.10;31.20;;;;;;5025785;28;20669;-43
2022/03/22 03:57:02;;;;;;;4.80;3.30;;;22.10;31.20;;;;;;5027296;28;20427;-42
2022/03/22 03:59:28;;;;;;;4.85;3.20;;;22.10;31.30;;;;;;5025517;28;20514;-43
2022/03/22 04:01:54;;;;;;;4.70;3.20;;;22.10;31.30;;;;;;5026077;28;20025;-43
2022/03/22 04:04:20;;;;;;;4.75;3.17;;;22.10;31.30;;;;;;5025968;28;20436;-43
2022/03/22 04:06:47;;;;;;;4.68;3.28;;;22.10;31.20;;;;;;5026518;28;20029;-43
2022/03/22 04:09:14;;;;;;;4.22;3.28;;;22.10;31.20;;;;;;5027008;28;20033;-44
2022/03/22 04:11:39;;;;;;;4.30;3.10;;;22.10;31.20;;;;;;5027436;28;20305;-43
2022/03/22 04:14:06;;;;;;;5.35;3.25;;;22.10;31.20;;;;;;5026884;28;20808;-43
2022/03/22 04:16:31;;;;;;;4.45;3.10;;;22.10;31.30;;;;;;5025244;28;20041;-43
2022/03/22 04:18:57;;;;;;;4.32;2.97;;;22.10;31.20;;;;;;5026670;28;20017;-44
2022/03/22 04:21:23;;;;;;;5.75;3.67;;;22.00;31.10;;;;;;5027117;28;20048;-42
2022/03/22 04:23:49;;;;;;;4.40;3.40;;;22.10;31.20;;;;;;5026676;28;20032;-43
2022/03/22 04:26:14;;;;;;;5.22;3.42;;;22.00;31.20;;;;;;5025859;28;20041;-44
2022/03/22 04:34:09;;;;;;;4.53;2.83;;;22.00;31.20;;;;;;5026500;28;20039;-44
2022/03/22 04:36:35;;;;;;;4.53;3.25;;;22.00;31.20;;;;;;5024603;28;20627;-43
2022/03/22 04:39:01;;;;;;;5.18;3.15;;;22.00;31.10;;;;;;5026024;28;20021;-42
2022/03/22 04:41:27;;;;;;;4.40;3.15;;;22.00;31.10;;;;;;5026487;28;20025;-43
2022/03/22 04:43:53;;;;;;;4.32;2.70;;;22.00;31.20;;;;;;5025361;28;20037;-44
2022/03/22 04:46:18;;;;;;;4.20;3.30;;;22.00;31.20;;;;;;5026363;28;20033;-44
2022/03/22 04:48:45;;;;;;;4.13;3.00;;;22.00;31.20;;;;;;5026030;28;20116;-43
2022/03/22 04:56:45;;;;;;;5.50;3.17;;;22.00;31.10;;;;;;5025084;28;20539;-44
2022/03/22 04:59:16;;;;;;;4.13;2.75;;;22.00;31.10;;;;;;5025266;28;20033;-43
2022/03/22 05:01:42;;;;;;;4.55;3.15;;;22.00;31.10;;;;;;5025161;28;20026;-43
2022/03/22 05:04:10;;;;;;;4.43;3.03;;;21.90;31.20;;;;;;5024477;28;20044;-44
2022/03/22 05:06:40;;;;;;;4.93;3.35;;;21.90;31.20;;;;;;5024352;28;20037;-43
2022/03/22 05:09:06;;;;;;;4.80;3.17;;;21.90;31.10;;;;;;5025735;28;20058;-43
2022/03/22 05:11:32;;;;;;;4.80;3.13;;;21.90;31.20;;;;;;5025813;28;20029;-44
2022/03/22 05:13:58;;;;;;;3.72;2.63;;;21.90;31.20;;;;;;5025296;28;20044;-43
2022/03/22 05:16:24;;;;;;;5.30;3.63;;;21.90;31.30;;;;;;5025272;28;20482;-43
2022/03/22 05:18:50;;;;;;;5.00;3.35;;;21.90;31.30;;;;;;5024743;28;20025;-44
2022/03/22 05:21:20;;;;;;;4.47;3.40;;;22.00;31.40;;;;;;5025446;28;20025;-43
2022/03/22 05:23:46;;;;;;;4.57;3.30;;;21.90;31.40;;;;;;5023658;28;20398;-43
2022/03/22 05:26:12;;;;;;;4.63;3.05;;;22.00;31.40;;;;;;5024925;28;20057;-43
2022/03/22 05:28:38;;;;;;;4.47;2.88;;;22.00;31.40;;;;;;5025592;28;20048;-43
2022/03/22 05:31:05;;;;;;;4.30;2.67;;;22.00;31.60;;;;;;5024891;28;20037;-44
2022/03/22 05:33:31;;;;;;;4.40;2.75;;;22.00;31.60;;;;;;5023657;28;20026;-43
2022/03/22 05:35:57;;;;;;;4.28;2.70;;;22.10;31.60;;;;;;5024492;28;20121;-44
2022/03/22 05:38:25;;;;;;;4.13;2.70;;;22.10;31.60;;;;;;5024791;28;20056;-43
2022/03/22 05:40:54;;;;;;;4.80;2.72;;;22.20;31.60;;;;;;5025274;28;20037;-43
2022/03/22 05:43:20;;;;;;;4.30;2.95;;;22.30;31.60;;;;;;5025143;28;20025;-44
2022/03/22 05:45:48;;;;;;;4.07;2.75;;;22.30;31.50;;;;;;5025050;28;20080;-44
2022/03/22 05:48:18;;;;;;;3.85;2.58;;;22.40;31.50;;;;;;5024825;28;20318;-43
2022/03/22 05:50:45;;;;;;;3.95;2.50;;;22.40;31.40;;;;;;5024730;28;20041;-44
2022/03/22 05:53:12;;;;;;;3.97;2.67;;;22.50;31.30;;;;;;5022421;28;20087;-43
2022/03/22 05:55:38;;;;;;;3.90;2.35;;;22.60;31.30;;;;;;5024789;28;20033;-43
2022/03/22 05:58:05;;;;;;;4.20;2.80;;;22.60;31.20;;;;;;5024345;28;20025;-44
2022/03/22 06:00:31;;;;;;;4.40;2.97;;;22.70;31.10;;;;;;5023056;28;20132;-44
2022/03/22 06:02:57;;;;;;;4.03;2.65;;;22.80;31.00;;;;;;5022780;28;20100;-43
2022/03/22 06:05:23;;;;;;;4.07;2.50;;;22.80;31.00;;;;;;5023023;28;20032;-43
2022/03/22 06:07:49;;;;;;;3.92;2.55;;;22.90;31.20;;;;;;5023296;28;20044;-43
2022/03/22 06:10:15;;;;;;;3.88;2.58;;;23.00;31.90;;;;;;5021943;28;20401;-45
2022/03/22 06:12:55;;;;;;;4.55;2.80;;;23.00;32.00;;;;;;5023616;28;20056;-43
2022/03/22 06:15:26;;;;;;;5.15;3.00;;;23.10;32.20;;;;;;5019182;28;20397;-43
2022/03/22 06:18:05;;;;;;;4.65;2.95;;;23.10;32.00;;;;;;5022744;28;20032;-43
2022/03/22 06:20:33;;;;;;;4.35;3.17;;;23.20;31.80;;;;;;5021614;28;20036;-43
2022/03/22 06:23:01;;;;;;;4.97;3.30;;;23.20;31.50;;;;;;5023408;28;20092;-43
2022/03/22 06:25:27;;;;;;;4.47;3.30;;;23.30;31.40;;;;;;5022039;28;20057;-43
2022/03/22 06:27:54;;;;;;;4.47;3.10;;;23.30;31.20;;;;;;5022383;28;20033;-43
2022/03/22 06:30:21;;;;;;;4.80;3.65;;;23.30;31.10;;;;;;5023384;28;20524;-43
2022/03/22 06:32:56;;;;;;;5.22;3.78;;;23.40;31.10;;;;;;5023046;28;20227;-44
2022/03/22 06:35:32;;;;;;;4.18;2.97;;;23.40;31.00;;;;;;5022076;28;20098;-43
2022/03/22 06:37:59;;;;;;;6.03;3.17;;;23.40;31.10;;;;;;5022834;28;20034;-43
2022/03/22 06:40:28;;;;;;;4.65;3.25;;;23.50;31.10;;;;;;5022725;28;20020;-44
2022/03/22 06:42:58;;;;;;;4.20;3.15;;;23.50;31.00;;;;;;5021912;28;20029;-44
2022/03/22 06:45:24;;;;;;;4.65;3.00;;;23.60;30.90;;;;;;5023049;28;20017;-45
2022/03/22 06:47:50;;;;;;;5.57;3.92;;;23.60;30.80;;;;;;5022861;28;20026;-43
2022/03/22 06:50:18;;;;;;;5.22;3.50;;;23.60;30.70;;;;;;5023329;28;20025;-43
2022/03/22 06:52:44;;;;;;;4.38;3.15;;;23.60;30.60;;;;;;5022199;28;20089;-44
2022/03/22 06:55:12;;;;;;;4.65;3.15;;;23.60;30.60;;;;;;5022453;28;20120;-44
2022/03/22 06:57:38;;;;;;;5.90;3.30;;;23.70;30.60;;;;;;5022458;28;20018;-44
2022/03/22 07:00:08;;;;;;;6.68;3.88;;;23.70;30.80;;;;;;5022044;28;20051;-44
2022/03/22 07:02:35;;;;;;;5.85;3.75;;;23.70;30.90;;;;;;5022368;28;20371;-44
2022/03/22 07:05:02;;;;;;;5.28;3.65;;;23.70;31.40;;;;;;5019760;28;20460;-45
2022/03/22 07:07:28;;;;;;;5.93;4.10;;;23.70;31.30;;;;;;5021721;28;20036;-44
2022/03/22 07:09:54;;;;;;;5.57;3.72;;;23.70;31.10;;;;;;5022486;28;20041;-44
2022/03/22 07:12:23;;;;;;;7.35;4.22;;;23.70;31.10;;;;;;5022874;28;20493;-44
2022/03/22 07:14:49;;;;;;;7.05;3.95;;;23.70;31.20;;;;;;5020853;28;20026;-44
2022/03/22 07:17:15;;;;;;;6.70;4.03;;;23.70;31.10;;;;;;5022200;28;20030;-43
2022/03/22 07:19:40;;;;;;;6.53;4.05;;;23.80;31.10;;;;;;5022605;28;20048;-44
2022/03/22 07:22:08;;;;;;;5.63;4.13;;;23.80;31.20;;;;;;5022167;28;20036;-44
2022/03/22 07:24:34;;;;;;;7.00;4.78;;;23.80;31.00;;;;;;5022332;28;20021;-45
2022/03/22 07:27:00;;;;;;;7.13;4.28;;;23.80;30.70;;;;;;5022094;28;20049;-45
2022/03/22 07:29:25;;;;;;;5.95;3.97;;;23.80;31.00;;;;;;5022090;28;20061;-44
2022/03/22 07:31:51;;;;;;;6.05;4.30;;;23.80;30.90;;;;;;5023318;28;20053;-44
2022/03/22 07:34:18;;;;;;;7.28;4.82;;;23.80;30.70;;;;;;5023518;28;20041;-43
2022/03/22 07:36:47;;;;;;;6.00;4.10;;;23.80;30.80;;;;;;5023389;28;20117;-44
2022/03/22 07:39:13;;;;;;;6.97;4.63;;;23.80;30.80;;;;;;5024642;28;20033;-45
2022/03/22 07:41:43;;;;;;;6.93;3.85;;;23.90;30.90;;;;;;5026629;28;20025;-45
2022/03/22 07:44:12;;;;;;;6.75;4.53;;;23.90;30.90;;;;;;5026047;28;20120;-44
2022/03/22 07:46:47;;;;;;;7.15;4.13;;;23.90;31.50;;;;;;5025747;28;20544;-44
2022/03/22 07:54:43;;;;;;;6.15;4.50;;;23.90;30.70;;;;;;5026570;28;20065;-43
2022/03/22 07:57:08;;;;;;;5.85;3.72;;;23.90;30.70;;;;;;5026589;28;20096;-44
2022/03/22 07:59:35;;;;;;;6.82;4.40;;;23.90;30.70;;;;;;5026248;28;20075;-44
2022/03/22 08:02:01;;;;;;;5.80;3.67;;;23.90;30.70;;;;;;5026789;28;20508;-44
2022/03/22 08:04:27;;;;;;;6.57;4.10;;;23.90;30.70;;;;;;5026464;28;20032;-44
2022/03/22 08:06:52;;;;;;;5.80;3.95;;;24.00;30.60;;;;;;5026091;28;20037;-44
2022/03/22 08:09:19;;;;;;;5.35;3.65;;;24.00;30.60;;;;;;5025089;28;20086;-44
2022/03/22 08:11:45;;;;;;;6.90;4.50;;;23.90;30.50;;;;;;5026275;28;20033;-44
2022/03/22 08:14:11;;;;;;;6.00;4.03;;;24.00;30.60;;;;;;5026472;28;20448;-43
2022/03/22 08:16:36;;;;;;;6.75;4.30;;;24.00;30.50;;;;;;5025738;28;20026;-44
2022/03/22 08:19:05;;;;;;;6.07;4.05;;;23.90;30.50;;;;;;5026345;28;20029;-44
2022/03/22 08:21:34;;;;;;;5.45;3.78;;;24.00;30.50;;;;;;5026290;28;20029;-44
2022/03/22 08:24:01;;;;;;;8.40;4.45;;;23.90;30.50;;;;;;5025188;28;20065;-44
2022/03/22 08:26:27;;;;;;;4.88;3.50;;;24.00;30.50;;;;;;5025753;28;20037;-44
2022/03/22 08:28:54;;;;;;;5.40;3.88;;;24.00;30.50;;;;;;5024125;28;20040;-45
2022/03/22 08:31:20;;;;;;;4.50;3.58;;;24.00;30.40;;;;;;5025536;28;20116;-44
2022/03/22 08:33:46;;;;;;;5.05;3.40;;;24.00;30.40;;;;;;5025684;28;20112;-44
2022/03/22 08:36:12;;;;;;;5.15;3.85;;;24.00;30.40;;;;;;5024674;28;20033;-44
2022/03/22 08:38:37;;;;;;;6.07;3.90;;;24.00;30.40;;;;;;5026056;28;20191;-44
2022/03/22 08:41:03;;;;;;;4.80;3.30;;;24.00;30.30;;;;;;5026303;28;20029;-44
2022/03/22 08:43:30;;;;;;;4.97;3.17;;;24.00;30.30;;;;;;5024357;28;20687;-43
2022/03/22 08:45:56;;;;;;;5.43;3.97;;;24.00;30.30;;;;;;5025454;28;20310;-44
2022/03/22 08:48:23;;;;;;;4.88;3.72;;;24.00;30.30;;;;;;5025241;28;20033;-44
2022/03/22 08:50:50;;;;;;;6.20;3.83;;;24.00;30.30;;;;;;5025744;28;20044;-43
2022/03/22 08:53:17;;;;;;;5.15;3.80;;;24.00;30.30;;;;;;5025689;28;20047;-44
2022/03/22 08:55:44;;;;;;;4.78;3.50;;;24.10;30.30;;;;;;5025320;28;20100;-45
2022/03/22 08:58:10;;;;;;;5.53;3.75;;;24.10;30.30;;;;;;5025387;28;20079;-44
2022/03/22 09:00:37;;;;;;;4.88;3.42;;;24.10;30.40;;;;;;5026063;28;20425;-44
2022/03/22 09:03:04;;;;;;;4.80;3.25;;;24.00;30.30;;;;;;5025717;28;20075;-44
2022/03/22 09:08:15;;;;;;;5.25;3.40;;;24.10;30.30;;;;;;5025236;28;20075;-43
2022/03/22 09:10:41;;;;;;;5.75;3.55;;;24.10;30.30;;;;;;5025907;28;20026;-43
2022/03/22 09:13:08;;;;;;;5.93;3.72;;;24.10;30.30;;;;;;5024696;28;20243;-43
2022/03/22 09:15:39;;;;;;;5.35;4.03;;;24.10;30.30;;;;;;5025121;28;20026;-44
2022/03/22 09:18:12;;;;;;;5.25;3.88;;;24.10;30.30;;;;;;5024717;28;20052;-44
2022/03/22 09:20:38;;;;;;;5.40;3.80;;;24.10;30.20;;;;;;5025479;28;20183;-44
2022/03/22 09:23:04;;;;;;;6.40;3.83;;;24.10;30.20;;;;;;5025204;28;20578;-44
2022/03/22 09:25:30;;;;;;;4.82;3.60;;;24.10;30.10;;;;;;5024853;28;20028;-44
2022/03/22 09:27:56;;;;;;;4.82;3.25;;;24.10;30.20;;;;;;5024233;28;20630;-45
2022/03/22 09:30:22;;;;;;;4.97;3.47;;;24.10;30.20;;;;;;5023597;28;20033;-44
2022/03/22 09:32:48;;;;;;;4.90;3.78;;;24.10;30.20;;;;;;5024827;28;20475;-44
2022/03/22 09:35:17;;;;;;;4.82;3.60;;;24.10;30.20;;;;;;5024794;28;20033;-44
2022/03/22 09:37:43;;;;;;;5.22;3.60;;;24.10;30.20;;;;;;5024449;28;20021;-44
2022/03/22 09:40:11;;;;;;;5.45;4.00;;;24.10;30.20;;;;;;5024599;28;20053;-45
2022/03/22 09:42:42;;;;;;;4.82;3.53;;;24.10;30.10;;;;;;5023688;28;20028;-43
2022/03/22 09:45:13;;;;;;;4.82;3.35;;;24.10;30.10;;;;;;5024636;28;20029;-44
2022/03/22 09:47:42;;;;;;;5.55;4.00;;;24.10;30.20;;;;;;5024630;28;20032;-43
2022/03/22 09:50:09;;;;;;;4.65;3.22;;;24.10;30.20;;;;;;5024857;28;20044;-44
2022/03/22 09:52:35;;;;;;;4.97;3.40;;;24.10;30.20;;;;;;5024411;28;20052;-44
2022/03/22 09:55:02;;;;;;;5.72;4.05;;;24.10;30.20;;;;;;5024520;28;20029;-44
2022/03/22 09:57:28;;;;;;;5.50;3.58;;;24.10;30.20;;;;;;5023934;28;20029;-44
2022/03/22 09:59:54;;;;;;;5.45;4.20;;;24.10;30.10;;;;;;5023766;28;20047;-44
2022/03/22 10:02:35;;;;;;;4.20;3.10;;;24.10;30.10;;;;;;5022814;28;20525;-44
2022/03/22 10:05:01;;;;;;;4.93;3.53;;;24.10;30.10;;;;;;5024074;28;20820;-44
2022/03/22 10:07:27;;;;;;;4.78;3.70;;;24.10;30.10;;;;;;5022294;28;20037;-45
2022/03/22 10:10:00;;;;;;;4.90;3.78;;;24.10;30.10;;;;;;5024015;28;20091;-43
2022/03/22 10:12:31;;;;;;;4.95;3.67;;;24.10;30.10;;;;;;5022882;28;20120;-44
2022/03/22 10:15:16;;;;;;;4.72;3.60;;;24.10;30.10;;;;;;5023318;28;20041;-44
2022/03/22 10:17:44;;;;;;;5.15;3.78;;;24.10;30.10;;;;;;5022859;28;20041;-44
2022/03/22 10:20:21;;;;;;;4.78;3.38;;;24.10;30.00;;;;;;5024096;28;20318;-44
2022/03/22 10:22:55;;;;;;;6.07;3.70;;;24.10;30.00;;;;;;5023529;28;20490;-44
2022/03/22 10:25:22;;;;;;;4.97;3.60;;;24.10;30.10;;;;;;5022543;28;20128;-44
2022/03/22 10:27:52;;;;;;;4.93;3.55;;;24.10;30.00;;;;;;5023892;28;20038;-44
2022/03/22 10:30:18;;;;;;;4.10;3.05;;;24.10;30.00;;;;;;5023554;28;20037;-44
2022/03/22 10:32:50;;;;;;;5.22;3.58;;;24.10;30.10;;;;;;5023627;28;20547;-44
2022/03/22 10:35:28;;;;;;;4.80;3.33;;;24.10;30.00;;;;;;5024181;28;20447;-45
2022/03/22 10:37:55;;;;;;;5.00;3.40;;;24.20;30.00;;;;;;5023787;28;20048;-44
2022/03/22 10:40:26;;;;;;;3.90;2.90;;;24.20;30.70;;;;;;5024011;28;20057;-44
2022/03/22 10:42:54;;;;;;;5.65;3.80;;;24.20;30.10;;;;;;5023584;28;20038;-44
2022/03/22 10:45:20;;;;;;;5.13;3.47;;;24.20;30.00;;;;;;5023796;28;20069;-45
2022/03/22 10:47:46;;;;;;;4.45;3.47;;;24.20;30.00;;;;;;5023576;28;20030;-43
2022/03/22 10:50:12;;;;;;;5.90;4.03;;;24.20;30.00;;;;;;5023946;28;20045;-44
2022/03/22 10:53:07;;;;;;;4.80;3.33;;;24.20;30.00;;;;;;5023910;28;20065;-44
2022/03/22 10:55:33;;;;;;;4.85;3.13;;;24.20;30.00;;;;;;5018400;28;20560;-44
2022/03/22 10:58:02;;;;;;;4.20;3.05;;;24.20;30.00;;;;;;5023098;28;20128;-44
2022/03/22 11:00:30;;;;;;;4.40;3.25;;;24.20;30.00;;;;;;5023856;28;20540;-44
2022/03/22 11:02:57;;;;;;;5.10;3.50;;;24.20;30.00;;;;;;5023544;28;20033;-44
2022/03/22 11:05:24;;;;;;;5.25;3.38;;;24.20;30.00;;;;;;5021409;28;20033;-44
2022/03/22 11:07:51;;;;;;;5.10;3.55;;;24.20;29.90;;;;;;5023000;28;20513;-44
2022/03/22 11:10:30;;;;;;;5.13;3.35;;;24.20;29.90;;;;;;5023697;28;20528;-44
2022/03/22 11:13:00;;;;;;;5.03;3.30;;;24.20;29.90;;;;;;5024800;28;20021;-44
2022/03/22 11:15:35;;;;;;;4.50;2.95;;;24.20;29.90;;;;;;5027134;28;20396;-45
2022/03/22 11:18:02;;;;;;;4.68;3.40;;;24.20;30.00;;;;;;5027017;28;20032;-44
2022/03/22 11:20:28;;;;;;;4.63;3.35;;;24.20;29.90;;;;;;5027167;28;20497;-44
2022/03/22 11:22:56;;;;;;;5.63;2.90;;;24.20;29.90;;;;;;5026171;28;20040;-44
2022/03/22 11:25:35;;;;;;;3.88;2.85;;;24.20;29.90;;;;;;5027224;28;20025;-44
2022/03/22 11:28:12;;;;;;;4.47;3.13;;;24.20;29.90;;;;;;5025736;28;20030;-44
2022/03/22 11:30:42;;;;;;;4.75;3.25;;;24.20;29.90;;;;;;5027000;28;20541;-44
2022/03/22 11:36:13;;;;;;;4.15;2.90;;;24.20;29.90;;;;;;5026924;28;20071;-44
2022/03/22 11:38:46;;;;;;;4.60;3.33;;;24.20;29.80;;;;;;5027229;28;20029;-44
2022/03/22 11:44:31;;;;;;;4.43;2.95;;;24.20;29.70;;;;;;5026516;28;20032;-45
2022/03/22 11:47:32;;;;;;;4.28;2.85;;;24.20;29.70;;;;;;5026745;28;20083;-44
2022/03/22 11:50:01;;;;;;;4.65;2.83;;;24.20;29.70;;;;;;5016818;28;20045;-45
2022/03/22 11:52:41;;;;;;;3.85;2.65;;;24.20;29.70;;;;;;5026043;28;20030;-44
2022/03/22 11:55:11;;;;;;;4.40;2.83;;;24.20;30.30;;;;;;5026827;28;20116;-44
2022/03/22 11:57:56;;;;;;;4.72;3.22;;;24.30;29.70;;;;;;5026190;28;20026;-45
2022/03/22 12:00:45;;;;;;;4.13;2.83;;;24.20;29.70;;;;;;5026467;28;20030;-45
2022/03/22 12:03:13;;;;;;;4.18;2.78;;;24.20;29.70;;;;;;5026958;28;20025;-44
2022/03/22 12:05:39;;;;;;;4.32;3.00;;;24.20;29.70;;;;;;5026532;28;20095;-44
2022/03/22 12:08:10;;;;;;;4.35;2.97;;;24.20;29.70;;;;;;5026553;28;20036;-44
2022/03/22 12:10:36;;;;;;;4.40;3.13;;;24.20;29.80;;;;;;5026357;28;20533;-44
2022/03/22 12:13:03;;;;;;;4.90;2.90;;;24.30;29.90;;;;;;5026550;28;20064;-45
2022/03/22 12:15:29;;;;;;;4.82;3.13;;;24.30;29.90;;;;;;5026656;28;20033;-44
2022/03/22 12:17:56;;;;;;;4.40;2.65;;;24.30;29.90;;;;;;5025953;28;20072;-43
2022/03/22 12:20:24;;;;;;;4.20;2.70;;;24.30;29.80;;;;;;5026363;28;20140;-45
2022/03/22 12:22:57;;;;;;;4.00;2.55;;;24.30;29.80;;;;;;5025357;28;20052;-44
2022/03/22 12:25:26;;;;;;;3.75;2.50;;;24.30;29.70;;;;;;5024657;28;20021;-43
2022/03/22 12:27:54;;;;;;;3.97;2.50;;;24.40;29.60;;;;;;5026488;28;20112;-44
2022/03/22 12:30:22;;;;;;;4.20;2.47;;;24.40;29.60;;;;;;5025620;28;20445;-43
2022/03/22 12:32:52;;;;;;;3.97;2.55;;;24.40;29.50;;;;;;5026151;28;20060;-44
2022/03/22 12:35:19;;;;;;;4.80;2.85;;;24.40;29.40;;;;;;5025645;28;20033;-44
2022/03/22 12:37:45;;;;;;;3.85;2.67;;;24.40;29.40;;;;;;5025610;28;20029;-43
2022/03/22 12:40:13;;;;;;;4.03;2.60;;;24.50;29.50;;;;;;5026267;28;20081;-44
2022/03/22 12:42:40;;;;;;;3.67;2.50;;;24.50;29.50;;;;;;5026040;28;20032;-44
2022/03/22 12:45:06;;;;;;;3.75;2.50;;;24.50;29.40;;;;;;5025897;28;20115;-43
2022/03/22 12:47:33;;;;;;;3.63;2.20;;;24.50;29.40;;;;;;5024173;28;20033;-44
2022/03/22 12:49:59;;;;;;;4.10;2.88;;;24.50;29.40;;;;;;5024391;28;20033;-45
2022/03/22 12:52:28;;;;;;;3.45;2.38;;;24.60;29.30;;;;;;5026060;28;20062;-44
2022/03/22 12:54:55;;;;;;;3.70;2.42;;;24.60;29.30;;;;;;5025624;28;20030;-44
2022/03/22 12:57:21;;;;;;;3.45;2.50;;;24.60;29.10;;;;;;5025558;28;20025;-43
2022/03/22 12:59:47;;;;;;;3.50;2.28;;;24.60;29.20;;;;;;5023928;28;20032;-44
2022/03/22 13:02:13;;;;;;;3.75;2.33;;;24.70;29.20;;;;;;5025372;28;20416;-44
2022/03/22 13:04:47;;;;;;;3.65;2.38;;;24.70;29.20;;;;;;5025835;28;20044;-43
2022/03/22 13:07:35;;;;;;;5.13;2.63;;;24.70;29.10;;;;;;5025660;28;20025;-44
2022/03/22 13:12:46;;;;;;;3.80;2.33;;;24.70;29.00;;;;;;5024749;28;20040;-44
2022/03/22 13:15:14;;;;;;;3.85;2.55;;;24.80;29.10;;;;;;5024269;28;20405;-44
2022/03/22 13:17:43;;;;;;;4.25;2.58;;;24.80;29.00;;;;;;5025338;28;20508;-44
2022/03/22 13:20:17;;;;;;;5.30;2.53;;;24.80;29.00;;;;;;5025198;28;20030;-44
2022/03/22 13:23:08;;;;;;;4.20;2.67;;;24.90;29.00;;;;;;5024594;28;20080;-44
2022/03/22 13:25:39;;;;;;;3.85;2.40;;;24.90;28.90;;;;;;5025002;28;20017;-44
2022/03/22 13:28:05;;;;;;;3.60;2.17;;;24.90;28.90;;;;;;5024667;28;20029;-44